sensor_id;sensor_type;location;lat;lon;timestamp;P1;P2;P0
70554;PMS5003;58104;52.744;15.242;2023-08-30T00:01:16;2;1;
70554;PMS5003;58104;52.744;15.242;2023-08-30T00:03:42;2;2;
70554;PMS5003;58104;52.744;15.242;2023-08-30T00:06:07;1;1;
70554;PMS5003;58104;52.744;15.242;2023-08-30T00:08:33;1;1;
70554;PMS5003;58104;52.744;15.242;2023-08-30T00:10:58;1;1;
70554;PMS5003;58104;52.744;15.242;2023-08-30T00:13:23;2;2;
70554;PMS5003;58104;52.744;15.242;2023-08-30T00:15:49;0;0;
70554;PMS5003;58104;52.744;15.242;2023-08-30T00:18:14;2;1;
70554;PMS5003;58104;52.744;15.242;2023-08-30T00:20:39;0;0;
70554;PMS5003;58104;52.744;15.242;2023-08-30T00:23:05;2;2;
70554;PMS5003;58104;52.744;15.242;2023-08-30T00:25:30;0;0;
70554;PMS5003;58104;52.744;15.242;2023-08-30T00:27:55;2;2;
70554;PMS5003;58104;52.744;15.242;2023-08-30T00:30:21;0;0;
70554;PMS5003;58104;52.744;15.242;2023-08-30T00:32:46;2;1;
70554;PMS5003;58104;52.744;15.242;2023-08-30T00:35:12;0;0;
70554;PMS5003;58104;52.744;15.242;2023-08-30T00:37:37;4;2;
70554;PMS5003;58104;52.744;15.242;2023-08-30T00:40:02;1;1;
70554;PMS5003;58104;52.744;15.242;2023-08-30T00:42:28;1;1;
70554;PMS5003;58104;52.744;15.242;2023-08-30T00:44:53;1;1;
70554;PMS5003;58104;52.744;15.242;2023-08-30T00:47:19;2;2;
70554;PMS5003;58104;52.744;15.242;2023-08-30T00:49:44;1;1;
70554;PMS5003;58104;52.744;15.242;2023-08-30T00:52:09;1;1;
70554;PMS5003;58104;52.744;15.242;2023-08-30T00:54:34;1;1;
70554;PMS5003;58104;52.744;15.242;2023-08-30T00:57:00;0;0;
70554;PMS5003;58104;52.744;15.242;2023-08-30T00:59:25;1;1;
70554;PMS5003;58104;52.744;15.242;2023-08-30T01:01:51;2;1;
70554;PMS5003;58104;52.744;15.242;2023-08-30T01:04:16;1;1;
70554;PMS5003;58104;52.744;15.242;2023-08-30T01:06:41;1;0;
70554;PMS5003;58104;52.744;15.242;2023-08-30T01:09:07;1;1;
70554;PMS5003;58104;52.744;15.242;2023-08-30T01:11:34;2;1;
70554;PMS5003;58104;52.744;15.242;2023-08-30T01:13:58;2;2;
70554;PMS5003;58104;52.744;15.242;2023-08-30T01:16:23;1;1;
70554;PMS5003;58104;52.744;15.242;2023-08-30T01:18:48;1;1;
70554;PMS5003;58104;52.744;15.242;2023-08-30T01:21:18;1;1;
70554;PMS5003;58104;52.744;15.242;2023-08-30T01:23:40;1;1;
70554;PMS5003;58104;52.744;15.242;2023-08-30T01:26:06;4;2;
70554;PMS5003;58104;52.744;15.242;2023-08-30T01:28:30;0;0;
70554;PMS5003;58104;52.744;15.242;2023-08-30T01:30:55;1;1;
70554;PMS5003;58104;52.744;15.242;2023-08-30T01:33:20;0;0;
70554;PMS5003;58104;52.744;15.242;2023-08-30T01:35:45;1;1;
70554;PMS5003;58104;52.744;15.242;2023-08-30T01:38:11;1;1;
70554;PMS5003;58104;52.744;15.242;2023-08-30T01:40:37;0;0;
70554;PMS5003;58104;52.744;15.242;2023-08-30T01:43:02;1;1;
70554;PMS5003;58104;52.744;15.242;2023-08-30T01:45:27;0;0;
70554;PMS5003;58104;52.744;15.242;2023-08-30T01:47:52;0;0;
70554;PMS5003;58104;52.744;15.242;2023-08-30T01:50:18;0;0;
70554;PMS5003;58104;52.744;15.242;2023-08-30T01:52:43;1;1;
70554;PMS5003;58104;52.744;15.242;2023-08-30T01:55:08;1;1;
70554;PMS5003;58104;52.744;15.242;2023-08-30T01:57:34;1;1;
70554;PMS5003;58104;52.744;15.242;2023-08-30T01:59:59;1;1;
70554;PMS5003;58104;52.744;15.242;2023-08-30T02:02:28;2;1;
70554;PMS5003;58104;52.744;15.242;2023-08-30T02:04:50;1;1;
70554;PMS5003;58104;52.744;15.242;2023-08-30T02:07:17;1;1;
70554;PMS5003;58104;52.744;15.242;2023-08-30T02:09:42;0;0;
70554;PMS5003;58104;52.744;15.242;2023-08-30T02:12:07;1;1;
70554;PMS5003;58104;52.744;15.242;2023-08-30T02:14:31;1;1;
70554;PMS5003;58104;52.744;15.242;2023-08-30T02:16:57;1;1;
70554;PMS5003;58104;52.744;15.242;2023-08-30T02:19:22;2;1;
70554;PMS5003;58104;52.744;15.242;2023-08-30T02:21:47;1;1;
70554;PMS5003;58104;52.744;15.242;2023-08-30T02:24:13;1;1;
70554;PMS5003;58104;52.744;15.242;2023-08-30T02:26:38;1;1;
70554;PMS5003;58104;52.744;15.242;2023-08-30T02:29:04;0;0;
70554;PMS5003;58104;52.744;15.242;2023-08-30T02:31:29;1;1;
70554;PMS5003;58104;52.744;15.242;2023-08-30T02:33:54;0;0;
70554;PMS5003;58104;52.744;15.242;2023-08-30T02:36:20;1;1;
70554;PMS5003;58104;52.744;15.242;2023-08-30T02:38:45;2;2;
70554;PMS5003;58104;52.744;15.242;2023-08-30T02:41:10;2;2;
70554;PMS5003;58104;52.744;15.242;2023-08-30T02:43:35;2;2;
70554;PMS5003;58104;52.744;15.242;2023-08-30T02:46:01;1;1;
70554;PMS5003;58104;52.744;15.242;2023-08-30T02:48:26;4;2;
70554;PMS5003;58104;52.744;15.242;2023-08-30T02:50:52;0;0;
70554;PMS5003;58104;52.744;15.242;2023-08-30T02:53:17;0;0;
70554;PMS5003;58104;52.744;15.242;2023-08-30T02:55:42;2;2;
70554;PMS5003;58104;52.744;15.242;2023-08-30T02:58:08;0;0;
70554;PMS5003;58104;52.744;15.242;2023-08-30T03:00:33;1;1;
70554;PMS5003;58104;52.744;15.242;2023-08-30T03:02:58;1;1;
70554;PMS5003;58104;52.744;15.242;2023-08-30T03:05:24;0;0;
70554;PMS5003;58104;52.744;15.242;2023-08-30T03:07:49;2;2;
70554;PMS5003;58104;52.744;15.242;2023-08-30T03:10:14;3;3;
70554;PMS5003;58104;52.744;15.242;2023-08-30T03:12:40;1;1;
70554;PMS5003;58104;52.744;15.242;2023-08-30T03:15:06;1;1;
70554;PMS5003;58104;52.744;15.242;2023-08-30T03:17:31;3;2;
70554;PMS5003;58104;52.744;15.242;2023-08-30T03:19:56;1;1;
70554;PMS5003;58104;52.744;15.242;2023-08-30T03:22:21;2;2;
70554;PMS5003;58104;52.744;15.242;2023-08-30T03:24:47;2;2;
70554;PMS5003;58104;52.744;15.242;2023-08-30T03:27:12;1;1;
70554;PMS5003;58104;52.744;15.242;2023-08-30T03:29:37;1;1;
70554;PMS5003;58104;52.744;15.242;2023-08-30T03:32:03;4;2;
70554;PMS5003;58104;52.744;15.242;2023-08-30T03:34:28;2;2;
70554;PMS5003;58104;52.744;15.242;2023-08-30T03:36:54;4;3;
70554;PMS5003;58104;52.744;15.242;2023-08-30T03:39:19;1;1;
70554;PMS5003;58104;52.744;15.242;2023-08-30T03:41:44;0;0;
70554;PMS5003;58104;52.744;15.242;2023-08-30T03:44:10;2;2;
70554;PMS5003;58104;52.744;15.242;2023-08-30T03:46:35;4;2;
70554;PMS5003;58104;52.744;15.242;2023-08-30T03:49:00;1;1;
70554;PMS5003;58104;52.744;15.242;2023-08-30T03:51:26;2;2;
70554;PMS5003;58104;52.744;15.242;2023-08-30T03:53:51;2;2;
70554;PMS5003;58104;52.744;15.242;2023-08-30T03:56:17;2;2;
70554;PMS5003;58104;52.744;15.242;2023-08-30T03:58:42;1;1;
70554;PMS5003;58104;52.744;15.242;2023-08-30T04:01:07;1;1;
70554;PMS5003;58104;52.744;15.242;2023-08-30T04:03:33;3;3;
70554;PMS5003;58104;52.744;15.242;2023-08-30T04:05:58;4;3;
70554;PMS5003;58104;52.744;15.242;2023-08-30T04:08:23;1;1;
70554;PMS5003;58104;52.744;15.242;2023-08-30T04:10:51;0;0;
70554;PMS5003;58104;52.744;15.242;2023-08-30T04:13:15;6;6;
70554;PMS5003;58104;52.744;15.242;2023-08-30T04:15:40;4;4;
70554;PMS5003;58104;52.744;15.242;2023-08-30T04:18:06;6;3;
70554;PMS5003;58104;52.744;15.242;2023-08-30T04:20:31;1;1;
70554;PMS5003;58104;52.744;15.242;2023-08-30T04:22:56;2;2;
70554;PMS5003;58104;52.744;15.242;2023-08-30T04:25:22;4;3;
70554;PMS5003;58104;52.744;15.242;2023-08-30T04:27:47;4;4;
70554;PMS5003;58104;52.744;15.242;2023-08-30T04:30:13;3;2;
70554;PMS5003;58104;52.744;15.242;2023-08-30T04:32:38;4;4;
70554;PMS5003;58104;52.744;15.242;2023-08-30T04:35:03;4;3;
70554;PMS5003;58104;52.744;15.242;2023-08-30T04:37:29;2;2;
70554;PMS5003;58104;52.744;15.242;2023-08-30T04:39:54;6;3;
70554;PMS5003;58104;52.744;15.242;2023-08-30T04:42:19;4;3;
70554;PMS5003;58104;52.744;15.242;2023-08-30T04:44:45;3;3;
70554;PMS5003;58104;52.744;15.242;2023-08-30T04:47:10;5;5;
70554;PMS5003;58104;52.744;15.242;2023-08-30T04:49:35;3;3;
70554;PMS5003;58104;52.744;15.242;2023-08-30T04:52:00;6;4;
70554;PMS5003;58104;52.744;15.242;2023-08-30T04:54:26;4;4;
70554;PMS5003;58104;52.744;15.242;2023-08-30T04:56:51;3;3;
70554;PMS5003;58104;52.744;15.242;2023-08-30T04:59:17;6;6;
70554;PMS5003;58104;52.744;15.242;2023-08-30T05:01:42;3;3;
70554;PMS5003;58104;52.744;15.242;2023-08-30T05:04:07;6;5;
70554;PMS5003;58104;52.744;15.242;2023-08-30T05:06:33;1;1;
70554;PMS5003;58104;52.744;15.242;2023-08-30T05:08:58;4;4;
70554;PMS5003;58104;52.744;15.242;2023-08-30T05:11:23;13;8;
70554;PMS5003;58104;52.744;15.242;2023-08-30T05:13:49;4;4;
70554;PMS5003;58104;52.744;15.242;2023-08-30T05:16:14;6;6;
70554;PMS5003;58104;52.744;15.242;2023-08-30T05:18:39;7;6;
70554;PMS5003;58104;52.744;15.242;2023-08-30T05:21:05;7;5;
70554;PMS5003;58104;52.744;15.242;2023-08-30T05:23:30;7;7;
70554;PMS5003;58104;52.744;15.242;2023-08-30T05:25:56;5;5;
70554;PMS5003;58104;52.744;15.242;2023-08-30T05:28:21;8;6;
70554;PMS5003;58104;52.744;15.242;2023-08-30T05:30:46;8;8;
70554;PMS5003;58104;52.744;15.242;2023-08-30T05:33:12;12;9;
70554;PMS5003;58104;52.744;15.242;2023-08-30T05:35:37;11;10;
70554;PMS5003;58104;52.744;15.242;2023-08-30T05:38:03;9;8;
70554;PMS5003;58104;52.744;15.242;2023-08-30T05:40:28;11;10;
70554;PMS5003;58104;52.744;15.242;2023-08-30T05:42:53;9;9;
70554;PMS5003;58104;52.744;15.242;2023-08-30T05:45:19;14;14;
70554;PMS5003;58104;52.744;15.242;2023-08-30T05:47:44;14;12;
70554;PMS5003;58104;52.744;15.242;2023-08-30T05:50:10;13;13;
70554;PMS5003;58104;52.744;15.242;2023-08-30T05:52:35;11;11;
70554;PMS5003;58104;52.744;15.242;2023-08-30T05:55:00;14;12;
70554;PMS5003;58104;52.744;15.242;2023-08-30T05:57:25;12;11;
70554;PMS5003;58104;52.744;15.242;2023-08-30T05:59:51;17;15;
70554;PMS5003;58104;52.744;15.242;2023-08-30T06:02:16;12;12;
70554;PMS5003;58104;52.744;15.242;2023-08-30T06:04:41;15;12;
70554;PMS5003;58104;52.744;15.242;2023-08-30T06:07:10;16;14;
70554;PMS5003;58104;52.744;15.242;2023-08-30T06:09:32;16;13;
70554;PMS5003;58104;52.744;15.242;2023-08-30T06:11:57;15;15;
70554;PMS5003;58104;52.744;15.242;2023-08-30T06:14:23;14;13;
70554;PMS5003;58104;52.744;15.242;2023-08-30T06:16:48;17;16;
70554;PMS5003;58104;52.744;15.242;2023-08-30T06:19:14;14;14;
70554;PMS5003;58104;52.744;15.242;2023-08-30T06:21:39;17;16;
70554;PMS5003;58104;52.744;15.242;2023-08-30T06:24:04;13;13;
70554;PMS5003;58104;52.744;15.242;2023-08-30T06:26:29;13;13;
70554;PMS5003;58104;52.744;15.242;2023-08-30T06:28:54;15;15;
70554;PMS5003;58104;52.744;15.242;2023-08-30T06:31:20;15;14;
70554;PMS5003;58104;52.744;15.242;2023-08-30T06:33:45;15;14;
70554;PMS5003;58104;52.744;15.242;2023-08-30T06:36:12;18;15;
70554;PMS5003;58104;52.744;15.242;2023-08-30T06:38:36;14;13;
70554;PMS5003;58104;52.744;15.242;2023-08-30T06:41:01;15;15;
70554;PMS5003;58104;52.744;15.242;2023-08-30T06:43:26;15;15;
70554;PMS5003;58104;52.744;15.242;2023-08-30T06:45:51;15;15;
70554;PMS5003;58104;52.744;15.242;2023-08-30T06:48:16;17;16;
70554;PMS5003;58104;52.744;15.242;2023-08-30T06:50:42;17;17;
70554;PMS5003;58104;52.744;15.242;2023-08-30T06:53:08;18;17;
70554;PMS5003;58104;52.744;15.242;2023-08-30T06:55:33;20;19;
70554;PMS5003;58104;52.744;15.242;2023-08-30T06:57:58;16;16;
70554;PMS5003;58104;52.744;15.242;2023-08-30T07:00:23;13;13;
70554;PMS5003;58104;52.744;15.242;2023-08-30T07:02:48;16;16;
70554;PMS5003;58104;52.744;15.242;2023-08-30T07:05:19;15;14;
70554;PMS5003;58104;52.744;15.242;2023-08-30T07:07:39;14;14;
70554;PMS5003;58104;52.744;15.242;2023-08-30T07:10:05;20;19;
70554;PMS5003;58104;52.744;15.242;2023-08-30T07:12:30;16;16;
70554;PMS5003;58104;52.744;15.242;2023-08-30T07:14:56;16;15;
70554;PMS5003;58104;52.744;15.242;2023-08-30T07:17:21;15;15;
70554;PMS5003;58104;52.744;15.242;2023-08-30T07:19:46;16;16;
70554;PMS5003;58104;52.744;15.242;2023-08-30T07:22:11;11;11;
70554;PMS5003;58104;52.744;15.242;2023-08-30T07:24:37;17;14;
70554;PMS5003;58104;52.744;15.242;2023-08-30T07:27:02;16;16;
70554;PMS5003;58104;52.744;15.242;2023-08-30T07:29:28;17;17;
70554;PMS5003;58104;52.744;15.242;2023-08-30T07:31:53;18;14;
70554;PMS5003;58104;52.744;15.242;2023-08-30T07:34:19;13;13;
70554;PMS5003;58104;52.744;15.242;2023-08-30T07:36:44;15;15;
70554;PMS5003;58104;52.744;15.242;2023-08-30T07:39:10;18;17;
70554;PMS5003;58104;52.744;15.242;2023-08-30T07:41:35;15;15;
70554;PMS5003;58104;52.744;15.242;2023-08-30T07:44:00;13;13;
70554;PMS5003;58104;52.744;15.242;2023-08-30T07:46:25;12;12;
70554;PMS5003;58104;52.744;15.242;2023-08-30T07:48:51;12;12;
70554;PMS5003;58104;52.744;15.242;2023-08-30T07:51:16;16;13;
70554;PMS5003;58104;52.744;15.242;2023-08-30T07:53:41;11;10;
70554;PMS5003;58104;52.744;15.242;2023-08-30T07:56:07;11;11;
70554;PMS5003;58104;52.744;15.242;2023-08-30T07:58:32;13;12;
70554;PMS5003;58104;52.744;15.242;2023-08-30T08:00:58;12;12;
70554;PMS5003;58104;52.744;15.242;2023-08-30T08:03:23;8;8;
70554;PMS5003;58104;52.744;15.242;2023-08-30T08:05:48;12;11;
70554;PMS5003;58104;52.744;15.242;2023-08-30T08:08:14;12;9;
70554;PMS5003;58104;52.744;15.242;2023-08-30T08:10:39;12;11;
70554;PMS5003;58104;52.744;15.242;2023-08-30T08:13:04;10;10;
70554;PMS5003;58104;52.744;15.242;2023-08-30T08:15:30;11;11;
70554;PMS5003;58104;52.744;15.242;2023-08-30T08:17:55;8;8;
70554;PMS5003;58104;52.744;15.242;2023-08-30T08:20:21;12;11;
70554;PMS5003;58104;52.744;15.242;2023-08-30T08:22:46;10;10;
70554;PMS5003;58104;52.744;15.242;2023-08-30T08:25:11;10;10;
70554;PMS5003;58104;52.744;15.242;2023-08-30T08:27:36;11;11;
70554;PMS5003;58104;52.744;15.242;2023-08-30T08:30:02;11;11;
70554;PMS5003;58104;52.744;15.242;2023-08-30T08:32:27;10;9;
70554;PMS5003;58104;52.744;15.242;2023-08-30T08:34:53;11;9;
70554;PMS5003;58104;52.744;15.242;2023-08-30T08:37:18;10;10;
70554;PMS5003;58104;52.744;15.242;2023-08-30T08:39:43;10;10;
70554;PMS5003;58104;52.744;15.242;2023-08-30T08:42:09;10;8;
70554;PMS5003;58104;52.744;15.242;2023-08-30T08:44:34;9;9;
70554;PMS5003;58104;52.744;15.242;2023-08-30T08:46:59;10;10;
70554;PMS5003;58104;52.744;15.242;2023-08-30T08:49:25;12;11;
70554;PMS5003;58104;52.744;15.242;2023-08-30T08:51:50;10;10;
70554;PMS5003;58104;52.744;15.242;2023-08-30T08:54:16;9;9;
70554;PMS5003;58104;52.744;15.242;2023-08-30T08:56:41;11;11;
70554;PMS5003;58104;52.744;15.242;2023-08-30T08:59:07;7;7;
70554;PMS5003;58104;52.744;15.242;2023-08-30T09:01:32;9;9;
70554;PMS5003;58104;52.744;15.242;2023-08-30T09:03:57;8;8;
70554;PMS5003;58104;52.744;15.242;2023-08-30T09:06:23;8;8;
70554;PMS5003;58104;52.744;15.242;2023-08-30T09:08:48;6;6;
70554;PMS5003;58104;52.744;15.242;2023-08-30T09:11:13;11;9;
70554;PMS5003;58104;52.744;15.242;2023-08-30T09:13:39;8;8;
70554;PMS5003;58104;52.744;15.242;2023-08-30T09:18:29;7;6;
70554;PMS5003;58104;52.744;15.242;2023-08-30T09:23:20;4;4;
70554;PMS5003;58104;52.744;15.242;2023-08-30T09:25:45;8;6;
70554;PMS5003;58104;52.744;15.242;2023-08-30T09:28:11;6;6;
70554;PMS5003;58104;52.744;15.242;2023-08-30T09:30:36;7;7;
70554;PMS5003;58104;52.744;15.242;2023-08-30T09:33:01;6;6;
70554;PMS5003;58104;52.744;15.242;2023-08-30T09:35:27;6;6;
70554;PMS5003;58104;52.744;15.242;2023-08-30T09:37:52;11;8;
70554;PMS5003;58104;52.744;15.242;2023-08-30T09:40:19;5;5;
70554;PMS5003;58104;52.744;15.242;2023-08-30T09:42:43;7;7;
70554;PMS5003;58104;52.744;15.242;2023-08-30T09:47:34;4;3;
70554;PMS5003;58104;52.744;15.242;2023-08-30T09:49:59;7;5;
70554;PMS5003;58104;52.744;15.242;2023-08-30T09:52:24;6;6;
70554;PMS5003;58104;52.744;15.242;2023-08-30T09:54:50;4;4;
70554;PMS5003;58104;52.744;15.242;2023-08-30T09:57:15;6;6;
70554;PMS5003;58104;52.744;15.242;2023-08-30T09:59:40;5;5;
70554;PMS5003;58104;52.744;15.242;2023-08-30T10:02:06;4;4;
70554;PMS5003;58104;52.744;15.242;2023-08-30T10:04:31;8;7;
70554;PMS5003;58104;52.744;15.242;2023-08-30T10:06:57;6;5;
70554;PMS5003;58104;52.744;15.242;2023-08-30T10:09:22;5;5;
70554;PMS5003;58104;52.744;15.242;2023-08-30T10:11:47;5;5;
70554;PMS5003;58104;52.744;15.242;2023-08-30T10:14:13;5;5;
70554;PMS5003;58104;52.744;15.242;2023-08-30T10:16:40;7;5;
70554;PMS5003;58104;52.744;15.242;2023-08-30T10:19:03;5;5;
70554;PMS5003;58104;52.744;15.242;2023-08-30T10:21:28;7;6;
70554;PMS5003;58104;52.744;15.242;2023-08-30T10:23:53;5;4;
70554;PMS5003;58104;52.744;15.242;2023-08-30T10:26:19;5;4;
70554;PMS5003;58104;52.744;15.242;2023-08-30T10:28:44;5;4;
70554;PMS5003;58104;52.744;15.242;2023-08-30T10:31:10;7;6;
70554;PMS5003;58104;52.744;15.242;2023-08-30T10:36:05;5;4;
70554;PMS5003;58104;52.744;15.242;2023-08-30T10:38:26;4;4;
70554;PMS5003;58104;52.744;15.242;2023-08-30T10:40:51;5;5;
70554;PMS5003;58104;52.744;15.242;2023-08-30T10:43:16;5;4;
70554;PMS5003;58104;52.744;15.242;2023-08-30T10:45:42;3;3;
70554;PMS5003;58104;52.744;15.242;2023-08-30T10:48:07;5;5;
70554;PMS5003;58104;52.744;15.242;2023-08-30T10:50:33;4;4;
70554;PMS5003;58104;52.744;15.242;2023-08-30T10:52:58;4;4;
70554;PMS5003;58104;52.744;15.242;2023-08-30T10:55:23;5;4;
70554;PMS5003;58104;52.744;15.242;2023-08-30T10:57:57;5;4;
70554;PMS5003;58104;52.744;15.242;2023-08-30T11:00:18;5;4;
70554;PMS5003;58104;52.744;15.242;2023-08-30T11:02:43;6;5;
70554;PMS5003;58104;52.744;15.242;2023-08-30T11:05:06;5;4;
70554;PMS5003;58104;52.744;15.242;2023-08-30T11:07:30;4;4;
70554;PMS5003;58104;52.744;15.242;2023-08-30T11:09:55;3;3;
70554;PMS5003;58104;52.744;15.242;2023-08-30T11:12:21;5;5;
70554;PMS5003;58104;52.744;15.242;2023-08-30T11:14:46;6;5;
70554;PMS5003;58104;52.744;15.242;2023-08-30T11:17:11;4;4;
70554;PMS5003;58104;52.744;15.242;2023-08-30T11:19:37;5;5;
70554;PMS5003;58104;52.744;15.242;2023-08-30T11:22:02;3;3;
70554;PMS5003;58104;52.744;15.242;2023-08-30T11:24:28;8;6;
70554;PMS5003;58104;52.744;15.242;2023-08-30T11:26:53;5;5;
70554;PMS5003;58104;52.744;15.242;2023-08-30T11:29:18;5;5;
70554;PMS5003;58104;52.744;15.242;2023-08-30T11:31:44;4;4;
70554;PMS5003;58104;52.744;15.242;2023-08-30T11:34:09;5;4;
70554;PMS5003;58104;52.744;15.242;2023-08-30T11:36:34;4;4;
70554;PMS5003;58104;52.744;15.242;2023-08-30T11:38:59;5;5;
70554;PMS5003;58104;52.744;15.242;2023-08-30T11:41:25;5;5;
70554;PMS5003;58104;52.744;15.242;2023-08-30T11:43:50;6;5;
70554;PMS5003;58104;52.744;15.242;2023-08-30T11:46:16;5;4;
70554;PMS5003;58104;52.744;15.242;2023-08-30T11:48:41;4;4;
70554;PMS5003;58104;52.744;15.242;2023-08-30T11:51:06;4;4;
70554;PMS5003;58104;52.744;15.242;2023-08-30T11:53:31;4;4;
70554;PMS5003;58104;52.744;15.242;2023-08-30T11:55:57;4;4;
70554;PMS5003;58104;52.744;15.242;2023-08-30T11:58:22;4;4;
70554;PMS5003;58104;52.744;15.242;2023-08-30T12:00:48;5;5;
70554;PMS5003;58104;52.744;15.242;2023-08-30T12:03:13;6;5;
70554;PMS5003;58104;52.744;15.242;2023-08-30T12:08:04;4;4;
70554;PMS5003;58104;52.744;15.242;2023-08-30T12:10:29;4;4;
70554;PMS5003;58104;52.744;15.242;2023-08-30T12:12:54;4;4;
70554;PMS5003;58104;52.744;15.242;2023-08-30T12:15:21;5;4;
70554;PMS5003;58104;52.744;15.242;2023-08-30T12:17:45;6;6;
70554;PMS5003;58104;52.744;15.242;2023-08-30T12:20:16;5;5;
70554;PMS5003;58104;52.744;15.242;2023-08-30T12:22:36;4;4;
70554;PMS5003;58104;52.744;15.242;2023-08-30T12:25:01;6;6;
70554;PMS5003;58104;52.744;15.242;2023-08-30T12:27:26;6;6;
70554;PMS5003;58104;52.744;15.242;2023-08-30T12:29:52;6;6;
70554;PMS5003;58104;52.744;15.242;2023-08-30T12:32:17;4;4;
70554;PMS5003;58104;52.744;15.242;2023-08-30T12:34:42;6;6;
70554;PMS5003;58104;52.744;15.242;2023-08-30T12:37:08;7;7;
70554;PMS5003;58104;52.744;15.242;2023-08-30T12:39:33;4;4;
70554;PMS5003;58104;52.744;15.242;2023-08-30T12:41:59;4;4;
70554;PMS5003;58104;52.744;15.242;2023-08-30T12:44:24;7;6;
70554;PMS5003;58104;52.744;15.242;2023-08-30T12:46:49;7;6;
70554;PMS5003;58104;52.744;15.242;2023-08-30T12:49:14;5;5;
70554;PMS5003;58104;52.744;15.242;2023-08-30T12:51:40;8;7;
70554;PMS5003;58104;52.744;15.242;2023-08-30T12:54:05;4;4;
70554;PMS5003;58104;52.744;15.242;2023-08-30T12:56:31;8;6;
70554;PMS5003;58104;52.744;15.242;2023-08-30T12:58:56;5;5;
70554;PMS5003;58104;52.744;15.242;2023-08-30T13:01:21;5;5;
70554;PMS5003;58104;52.744;15.242;2023-08-30T13:03:47;7;6;
70554;PMS5003;58104;52.744;15.242;2023-08-30T13:06:12;6;6;
70554;PMS5003;58104;52.744;15.242;2023-08-30T13:08:37;6;6;
70554;PMS5003;58104;52.744;15.242;2023-08-30T13:11:03;6;6;
70554;PMS5003;58104;52.744;15.242;2023-08-30T13:13:28;9;7;
70554;PMS5003;58104;52.744;15.242;2023-08-30T13:15:53;6;6;
70554;PMS5003;58104;52.744;15.242;2023-08-30T13:18:19;6;6;
70554;PMS5003;58104;52.744;15.242;2023-08-30T13:20:44;8;7;
70554;PMS5003;58104;52.744;15.242;2023-08-30T13:23:09;4;4;
70554;PMS5003;58104;52.744;15.242;2023-08-30T13:25:37;5;5;
70554;PMS5003;58104;52.744;15.242;2023-08-30T13:28:00;6;6;
70554;PMS5003;58104;52.744;15.242;2023-08-30T13:30:26;6;6;
70554;PMS5003;58104;52.744;15.242;2023-08-30T13:32:51;6;6;
70554;PMS5003;58104;52.744;15.242;2023-08-30T13:35:16;6;6;
70554;PMS5003;58104;52.744;15.242;2023-08-30T13:37:42;5;5;
70554;PMS5003;58104;52.744;15.242;2023-08-30T13:40:08;6;6;
70554;PMS5003;58104;52.744;15.242;2023-08-30T13:42:32;6;6;
70554;PMS5003;58104;52.744;15.242;2023-08-30T13:44:58;5;5;
70554;PMS5003;58104;52.744;15.242;2023-08-30T13:47:23;5;5;
70554;PMS5003;58104;52.744;15.242;2023-08-30T13:49:48;8;8;
70554;PMS5003;58104;52.744;15.242;2023-08-30T13:52:14;6;6;
70554;PMS5003;58104;52.744;15.242;2023-08-30T13:54:39;7;6;
70554;PMS5003;58104;52.744;15.242;2023-08-30T13:57:04;9;7;
70554;PMS5003;58104;52.744;15.242;2023-08-30T13:59:30;6;6;
70554;PMS5003;58104;52.744;15.242;2023-08-30T14:01:55;8;7;
70554;PMS5003;58104;52.744;15.242;2023-08-30T14:04:21;10;6;
70554;PMS5003;58104;52.744;15.242;2023-08-30T14:06:46;8;8;
70554;PMS5003;58104;52.744;15.242;2023-08-30T14:09:11;11;8;
70554;PMS5003;58104;52.744;15.242;2023-08-30T14:11:37;15;15;
70554;PMS5003;58104;52.744;15.242;2023-08-30T14:14:02;7;7;
70554;PMS5003;58104;52.744;15.242;2023-08-30T14:16:28;11;11;
70554;PMS5003;58104;52.744;15.242;2023-08-30T14:18:53;11;11;
70554;PMS5003;58104;52.744;15.242;2023-08-30T14:21:20;11;11;
70554;PMS5003;58104;52.744;15.242;2023-08-30T14:23:44;11;9;
70554;PMS5003;58104;52.744;15.242;2023-08-30T14:26:09;10;10;
70554;PMS5003;58104;52.744;15.242;2023-08-30T14:28:35;11;9;
70554;PMS5003;58104;52.744;15.242;2023-08-30T14:31:00;11;10;
70554;PMS5003;58104;52.744;15.242;2023-08-30T14:33:25;8;8;
70554;PMS5003;58104;52.744;15.242;2023-08-30T14:35:51;9;9;
70554;PMS5003;58104;52.744;15.242;2023-08-30T14:38:16;11;10;
70554;PMS5003;58104;52.744;15.242;2023-08-30T14:40:41;11;11;
70554;PMS5003;58104;52.744;15.242;2023-08-30T14:43:07;12;10;
70554;PMS5003;58104;52.744;15.242;2023-08-30T14:45:32;12;11;
70554;PMS5003;58104;52.744;15.242;2023-08-30T14:47:57;10;10;
70554;PMS5003;58104;52.744;15.242;2023-08-30T14:50:23;12;12;
70554;PMS5003;58104;52.744;15.242;2023-08-30T14:52:48;10;10;
70554;PMS5003;58104;52.744;15.242;2023-08-30T14:55:13;11;11;
70554;PMS5003;58104;52.744;15.242;2023-08-30T14:57:39;12;12;
70554;PMS5003;58104;52.744;15.242;2023-08-30T15:00:05;11;11;
70554;PMS5003;58104;52.744;15.242;2023-08-30T15:02:29;9;9;
70554;PMS5003;58104;52.744;15.242;2023-08-30T15:04:55;10;10;
70554;PMS5003;58104;52.744;15.242;2023-08-30T15:07:20;12;10;
70554;PMS5003;58104;52.744;15.242;2023-08-30T15:09:46;11;9;
70554;PMS5003;58104;52.744;15.242;2023-08-30T15:12:11;12;12;
70554;PMS5003;58104;52.744;15.242;2023-08-30T15:14:36;9;9;
70554;PMS5003;58104;52.744;15.242;2023-08-30T15:17:02;11;11;
70554;PMS5003;58104;52.744;15.242;2023-08-30T15:19:27;11;11;
70554;PMS5003;58104;52.744;15.242;2023-08-30T15:21:53;13;12;
70554;PMS5003;58104;52.744;15.242;2023-08-30T15:24:18;8;8;
70554;PMS5003;58104;52.744;15.242;2023-08-30T15:26:43;12;10;
70554;PMS5003;58104;52.744;15.242;2023-08-30T15:29:09;11;11;
70554;PMS5003;58104;52.744;15.242;2023-08-30T15:31:34;10;10;
70554;PMS5003;58104;52.744;15.242;2023-08-30T15:33:59;12;11;
70554;PMS5003;58104;52.744;15.242;2023-08-30T15:36:25;9;8;
70554;PMS5003;58104;52.744;15.242;2023-08-30T15:38:50;8;8;
70554;PMS5003;58104;52.744;15.242;2023-08-30T15:41:16;11;10;
70554;PMS5003;58104;52.744;15.242;2023-08-30T15:43:41;10;10;
70554;PMS5003;58104;52.744;15.242;2023-08-30T15:46:07;11;9;
70554;PMS5003;58104;52.744;15.242;2023-08-30T15:48:32;10;10;
70554;PMS5003;58104;52.744;15.242;2023-08-30T15:50:57;8;8;
70554;PMS5003;58104;52.744;15.242;2023-08-30T15:53:22;9;8;
70554;PMS5003;58104;52.744;15.242;2023-08-30T15:55:48;7;7;
70554;PMS5003;58104;52.744;15.242;2023-08-30T15:58:13;9;9;
70554;PMS5003;58104;52.744;15.242;2023-08-30T16:00:39;9;8;
70554;PMS5003;58104;52.744;15.242;2023-08-30T16:03:04;7;7;
70554;PMS5003;58104;52.744;15.242;2023-08-30T16:05:29;7;7;
70554;PMS5003;58104;52.744;15.242;2023-08-30T16:07:55;9;9;
70554;PMS5003;58104;52.744;15.242;2023-08-30T16:10:20;10;8;
70554;PMS5003;58104;52.744;15.242;2023-08-30T16:12:45;10;8;
70554;PMS5003;58104;52.744;15.242;2023-08-30T16:15:11;9;9;
70554;PMS5003;58104;52.744;15.242;2023-08-30T16:17:36;7;7;
70554;PMS5003;58104;52.744;15.242;2023-08-30T16:20:02;9;7;
70554;PMS5003;58104;52.744;15.242;2023-08-30T16:22:27;8;8;
70554;PMS5003;58104;52.744;15.242;2023-08-30T16:24:52;10;9;